Time;durP1;ratioP1;P1;durP2;ratioP2;P2;SDS_P1;SDS_P2;PMS_P1;PMS_P2;Temp;Humidity;BMP_temperature;BMP_pressure;BME280_temperature;BME280_humidity;BME280_pressure;Samples;Min_cycle;Max_cycle;Signal;HPM_P1;HPM_P2
2021/01/12 00:03:41;;;;;;;30.30;20.63;;;4.50;99.90;;;;;;5046279;28;20223;-94
2021/01/12 00:06:08;;;;;;;26.80;19.90;;;4.50;99.90;;;;;;5040685;28;20200;-93
2021/01/12 00:08:35;;;;;;;29.50;21.90;;;4.60;99.90;;;;;;5046266;28;20219;-93
2021/01/12 00:11:11;;;;;;;27.98;21.58;;;4.50;99.90;;;;;;5051848;28;20188;-92
2021/01/12 00:13:37;;;;;;;24.08;19.60;;;4.60;99.90;;;;;;5059693;28;20189;-92
2021/01/12 00:16:04;;;;;;;34.65;22.73;;;4.50;99.90;;;;;;5047635;28;20525;-93
2021/01/12 00:18:31;;;;;;;29.33;20.33;;;4.60;99.90;;;;;;5047681;28;20196;-94
2021/01/12 00:20:57;;;;;;;28.80;20.25;;;4.60;99.90;;;;;;5065519;28;20226;-92
2021/01/12 00:23:24;;;;;;;33.90;23.13;;;4.60;99.90;;;;;;5058476;28;20679;-92
2021/01/12 00:25:51;;;;;;;34.55;20.60;;;4.60;99.90;;;;;;5054964;28;20295;-92
2021/01/12 00:28:18;;;;;;;36.13;23.88;;;4.60;99.90;;;;;;5041296;28;20256;-93
2021/01/12 00:30:45;;;;;;;25.27;16.90;;;4.60;99.90;;;;;;5058567;28;20184;-93
2021/01/12 00:33:11;;;;;;;31.38;23.95;;;4.60;99.90;;;;;;5058920;28;20188;-91
2021/01/12 00:35:40;;;;;;;29.55;20.25;;;4.60;99.90;;;;;;5052311;28;20190;-86
2021/01/12 00:38:06;;;;;;;34.40;23.08;;;4.70;99.90;;;;;;5054186;28;20192;-91
2021/01/12 00:40:33;;;;;;;33.15;23.17;;;4.70;99.90;;;;;;5045362;28;20540;-88
2021/01/12 00:43:01;;;;;;;34.75;22.38;;;4.80;99.90;;;;;;5062785;28;20220;-91
2021/01/12 00:45:28;;;;;;;26.05;19.05;;;4.70;99.90;;;;;;5058195;28;20256;-92
2021/01/12 00:47:54;;;;;;;32.55;23.70;;;4.80;99.90;;;;;;5053839;28;20185;-89
2021/01/12 00:50:20;;;;;;;33.92;23.48;;;4.80;99.90;;;;;;5058935;28;20270;-92
2021/01/12 00:52:47;;;;;;;33.83;22.38;;;4.80;99.90;;;;;;5067404;28;20255;-93
2021/01/12 00:55:13;;;;;;;27.90;20.35;;;4.90;99.90;;;;;;5057791;28;20491;-92
2021/01/12 00:57:40;;;;;;;30.58;21.88;;;4.90;99.90;;;;;;5043806;28;20211;-91
2021/01/12 01:00:09;;;;;;;26.48;21.05;;;4.80;99.90;;;;;;5056312;28;20271;-94
2021/01/12 01:05:18;;;;;;;23.63;17.02;;;4.90;99.90;;;;;;5072199;28;20191;-95
2021/01/12 01:07:47;;;;;;;26.58;19.58;;;4.90;99.90;;;;;;5060646;28;20196;-94
2021/01/12 01:10:16;;;;;;;26.33;18.98;;;4.90;99.90;;;;;;5065776;28;20204;-96
2021/01/12 01:12:44;;;;;;;25.75;18.38;;;4.90;99.90;;;;;;5052157;28;20188;-93
2021/01/12 01:15:13;;;;;;;26.92;16.25;;;5.00;99.90;;;;;;5047593;28;20253;-94
2021/01/12 01:17:41;;;;;;;22.00;15.90;;;5.00;99.90;;;;;;5058411;28;20188;-95
2021/01/12 01:20:11;;;;;;;22.35;17.13;;;5.00;99.90;;;;;;5063335;28;20248;-93
2021/01/12 01:22:41;;;;;;;19.33;15.88;;;5.00;99.90;;;;;;5048151;28;20215;-94
2021/01/12 01:25:09;;;;;;;25.45;16.05;;;5.00;99.90;;;;;;5043880;28;20188;-93
2021/01/12 01:27:36;;;;;;;25.65;19.08;;;5.00;99.90;;;;;;5055580;28;20216;-93
2021/01/12 01:30:04;;;;;;;17.63;14.20;;;5.20;99.90;;;;;;5065819;28;20267;-89
2021/01/12 01:32:35;;;;;;;24.70;17.60;;;5.00;99.90;;;;;;5049866;28;20284;-92
2021/01/12 01:35:02;;;;;;;22.90;16.42;;;5.00;99.90;;;;;;5058986;28;20279;-93
2021/01/12 01:37:29;;;;;;;26.65;17.08;;;5.00;99.90;;;;;;5066243;28;20210;-95
2021/01/12 01:39:57;;;;;;;21.23;16.30;;;5.00;99.90;;;;;;5049097;28;20220;-95
2021/01/12 01:42:24;;;;;;;26.05;17.90;;;5.00;99.90;;;;;;5046175;28;20714;-94
2021/01/12 01:44:50;;;;;;;20.67;17.17;;;5.00;99.90;;;;;;5052010;28;20203;-94
2021/01/12 01:47:17;;;;;;;20.05;14.35;;;5.10;99.90;;;;;;5051051;28;20188;-95
2021/01/12 01:49:44;;;;;;;19.40;15.15;;;5.00;99.90;;;;;;5056398;28;20176;-90
2021/01/12 01:55:14;;;;;;;16.27;11.65;;;5.10;99.90;;;;;;5049781;28;20184;-95
2021/01/12 01:57:41;;;;;;;22.33;16.65;;;5.00;99.90;;;;;;5065585;28;20226;-92
2021/01/12 02:00:08;;;;;;;16.70;12.38;;;5.00;99.90;;;;;;5062131;28;20190;-93
2021/01/12 02:02:47;;;;;;;15.93;13.10;;;5.00;99.90;;;;;;5070694;28;20291;-95
2021/01/12 02:05:17;;;;;;;19.23;12.82;;;5.10;99.90;;;;;;5068155;28;20282;-95
2021/01/12 02:07:45;;;;;;;17.52;13.63;;;5.10;99.90;;;;;;5054541;28;20180;-94
2021/01/12 02:10:13;;;;;;;17.48;12.50;;;5.00;99.90;;;;;;5053856;28;20628;-93
2021/01/12 02:12:47;;;;;;;17.77;14.38;;;5.00;99.90;;;;;;5053932;28;20216;-92
2021/01/12 02:15:24;;;;;;;16.15;12.35;;;5.10;99.90;;;;;;5059780;28;20594;-91
2021/01/12 02:17:53;;;;;;;14.77;11.70;;;5.00;99.90;;;;;;5057683;28;20517;-93
2021/01/12 02:20:32;;;;;;;17.75;11.65;;;5.10;99.90;;;;;;5047205;28;20191;-95
2021/01/12 02:23:09;;;;;;;17.40;12.60;;;5.20;99.90;;;;;;5047036;28;20211;-93
2021/01/12 02:25:38;;;;;;;19.55;12.63;;;5.00;99.90;;;;;;5055204;28;20219;-92
2021/01/12 02:28:09;;;;;;;16.25;11.15;;;5.10;99.90;;;;;;5062698;28;20208;-90
2021/01/12 02:30:37;;;;;;;16.15;11.85;;;5.10;99.90;;;;;;5044823;28;20199;-93
2021/01/12 02:33:04;;;;;;;18.88;14.48;;;5.10;99.90;;;;;;5044019;28;20736;-94
2021/01/12 02:35:32;;;;;;;17.67;13.55;;;5.10;99.90;;;;;;5043905;28;20688;-93
2021/01/12 02:38:03;;;;;;;14.57;10.88;;;5.10;99.90;;;;;;5039542;28;20275;-93
2021/01/12 02:40:30;;;;;;;12.82;10.05;;;5.10;99.90;;;;;;5051238;28;20185;-92
2021/01/12 02:42:58;;;;;;;14.88;10.23;;;5.10;99.90;;;;;;5049663;28;20288;-92
2021/01/12 02:45:24;;;;;;;15.55;12.20;;;5.10;99.90;;;;;;5057139;28;20690;-92
2021/01/12 02:47:51;;;;;;;18.00;13.57;;;5.10;99.90;;;;;;5059979;28;20206;-93
2021/01/12 02:50:18;;;;;;;16.58;11.82;;;5.00;99.90;;;;;;5060021;28;20240;-92
2021/01/12 02:52:46;;;;;;;17.73;12.88;;;5.20;99.90;;;;;;5040186;28;20226;-90
2021/01/12 02:55:14;;;;;;;17.63;14.02;;;5.00;99.90;;;;;;5052391;28;20184;-94
2021/01/12 02:57:40;;;;;;;17.25;12.68;;;5.10;99.90;;;;;;5058896;28;20275;-95
2021/01/12 03:00:11;;;;;;;15.65;11.90;;;5.10;99.90;;;;;;5044625;28;20271;-94
2021/01/12 03:02:37;;;;;;;15.32;10.70;;;5.00;99.90;;;;;;5044006;28;20205;-95
2021/01/12 03:05:06;;;;;;;16.08;11.90;;;5.10;99.90;;;;;;5052947;28;20215;-95
2021/01/12 03:14:41;;;;;;;14.27;10.38;;;5.10;99.90;;;;;;5060959;28;20211;-92
2021/01/12 03:19:51;;;;;;;12.50;9.95;;;5.00;99.90;;;;;;5073335;22;20220;-93
2021/01/12 03:22:20;;;;;;;12.07;9.25;;;5.20;99.90;;;;;;5069705;28;20581;-94
2021/01/12 03:24:50;;;;;;;12.07;8.35;;;5.10;99.90;;;;;;5066930;28;20187;-92
2021/01/12 03:27:35;;;;;;;11.55;9.57;;;5.10;99.90;;;;;;5070192;28;20179;-92
2021/01/12 03:30:08;;;;;;;15.02;8.93;;;5.10;99.90;;;;;;5064080;28;20220;-95
2021/01/12 03:32:34;;;;;;;8.77;6.80;;;5.10;99.90;;;;;;5044230;28;20169;-91
2021/01/12 03:35:06;;;;;;;10.25;8.18;;;5.20;99.90;;;;;;5055458;28;20235;-93
2021/01/12 03:37:33;;;;;;;9.43;7.47;;;5.20;99.90;;;;;;5036833;28;20231;-92
2021/01/12 03:39:59;;;;;;;8.98;6.70;;;5.20;99.90;;;;;;5055587;28;20216;-93
2021/01/12 03:42:26;;;;;;;10.88;8.55;;;5.30;99.90;;;;;;5051192;28;20295;-94
2021/01/12 03:44:58;;;;;;;13.38;8.40;;;5.20;99.90;;;;;;5059887;28;20196;-94
2021/01/12 03:47:24;;;;;;;12.77;8.45;;;5.30;99.90;;;;;;5045415;28;20185;-95
2021/01/12 03:50:12;;;;;;;10.05;7.13;;;5.30;99.90;;;;;;5042629;28;20223;-94
2021/01/12 03:52:42;;;;;;;10.55;6.82;;;5.30;99.90;;;;;;5041184;28;20273;-95
2021/01/12 03:55:12;;;;;;;9.20;7.22;;;5.30;99.90;;;;;;5044516;28;20200;-94
2021/01/12 03:57:42;;;;;;;8.85;5.90;;;5.40;99.90;;;;;;5058428;28;20177;-92
2021/01/12 04:00:10;;;;;;;6.90;5.90;;;5.40;99.90;;;;;;5043704;28;20173;-91
2021/01/12 04:02:38;;;;;;;9.65;7.85;;;5.40;99.90;;;;;;5041535;28;20223;-93
2021/01/12 04:05:06;;;;;;;9.68;7.30;;;5.60;99.90;;;;;;5045392;28;20200;-93
2021/01/12 04:07:35;;;;;;;13.57;8.27;;;5.50;99.90;;;;;;5043362;28;20204;-93
2021/01/12 04:10:13;;;;;;;8.80;7.10;;;5.60;99.90;;;;;;5042713;28;20335;-95
2021/01/12 04:12:40;;;;;;;7.70;6.07;;;5.40;99.90;;;;;;5048985;28;20192;-92
2021/01/12 04:15:08;;;;;;;8.73;6.40;;;5.60;99.90;;;;;;5051286;28;20271;-94
2021/01/12 04:17:37;;;;;;;5.55;4.78;;;5.60;99.90;;;;;;5042818;28;20224;-91
2021/01/12 04:20:04;;;;;;;7.00;6.05;;;5.60;99.90;;;;;;5057088;28;20211;-92
2021/01/12 04:22:35;;;;;;;7.70;6.15;;;5.70;99.90;;;;;;5063244;28;20187;-93
2021/01/12 04:25:03;;;;;;;7.30;5.88;;;5.70;99.90;;;;;;5061691;28;20204;-92
2021/01/12 04:27:29;;;;;;;9.10;6.25;;;5.60;99.90;;;;;;5065641;28;20199;-93
2021/01/12 04:29:56;;;;;;;7.70;6.80;;;5.70;99.90;;;;;;5064329;28;20191;-95
2021/01/12 04:32:22;;;;;;;9.27;7.13;;;5.80;99.90;;;;;;5063014;28;20196;-94
2021/01/12 04:34:49;;;;;;;10.10;5.70;;;5.70;99.90;;;;;;5061782;28;20251;-95
2021/01/12 04:37:17;;;;;;;7.70;5.38;;;5.70;99.90;;;;;;5049869;28;20216;-94
2021/01/12 04:39:45;;;;;;;7.47;5.80;;;5.80;99.90;;;;;;5041710;28;20197;-93
2021/01/12 04:42:13;;;;;;;8.93;6.25;;;5.70;99.90;;;;;;5044529;28;20268;-93
2021/01/12 04:44:40;;;;;;;7.15;5.32;;;5.80;99.90;;;;;;5053003;28;20253;-93
2021/01/12 04:47:07;;;;;;;7.70;6.53;;;5.80;99.90;;;;;;5050069;28;20215;-93
2021/01/12 04:49:34;;;;;;;6.30;4.57;;;5.80;99.90;;;;;;5059708;28;20206;-95
2021/01/12 04:52:01;;;;;;;7.28;4.95;;;5.80;99.90;;;;;;5046670;28;20193;-95
2021/01/12 04:54:32;;;;;;;6.57;5.63;;;5.80;99.90;;;;;;5040943;28;20276;-93
2021/01/12 04:56:59;;;;;;;6.53;5.60;;;5.80;99.90;;;;;;5045293;28;20196;-93
2021/01/12 04:59:30;;;;;;;6.65;5.10;;;5.90;99.90;;;;;;5076506;28;20277;-90
2021/01/12 05:01:57;;;;;;;7.65;5.35;;;5.90;99.90;;;;;;5069418;28;20275;-93
2021/01/12 05:04:24;;;;;;;6.95;5.78;;;5.90;99.90;;;;;;5046822;28;20184;-91
2021/01/12 05:06:52;;;;;;;6.00;4.70;;;6.00;99.90;;;;;;5060389;28;20183;-92
2021/01/12 05:09:21;;;;;;;8.00;5.72;;;5.90;99.90;;;;;;5058630;28;20189;-92
2021/01/12 05:11:54;;;;;;;6.30;5.03;;;6.00;99.90;;;;;;5052529;28;20639;-93
2021/01/12 05:14:28;;;;;;;5.70;4.40;;;6.00;99.90;;;;;;5060492;28;20184;-92
2021/01/12 05:16:55;;;;;;;5.70;4.68;;;6.00;99.90;;;;;;5055513;28;20210;-93
2021/01/12 05:19:23;;;;;;;5.63;4.75;;;6.00;99.90;;;;;;5042879;28;20220;-91
2021/01/12 05:21:50;;;;;;;7.38;5.20;;;6.10;99.90;;;;;;5042890;28;20193;-94
2021/01/12 05:24:18;;;;;;;7.60;4.32;;;6.10;99.90;;;;;;5042459;28;20193;-94
2021/01/12 05:27:04;;;;;;;5.80;4.50;;;5.90;99.90;;;;;;5044128;28;20189;-94
2021/01/12 05:29:33;;;;;;;6.45;4.63;;;6.00;99.90;;;;;;5043891;28;20335;-92
2021/01/12 05:32:07;;;;;;;5.68;5.03;;;6.00;99.90;;;;;;5054346;28;20267;-92
2021/01/12 05:34:38;;;;;;;5.82;4.55;;;6.10;99.90;;;;;;5056904;28;20279;-93
2021/01/12 05:37:07;;;;;;;5.30;4.00;;;6.10;99.90;;;;;;5050078;28;20197;-94
2021/01/12 05:39:38;;;;;;;7.10;5.00;;;6.20;99.90;;;;;;5064487;28;20218;-94
2021/01/12 05:42:07;;;;;;;5.93;5.10;;;6.20;99.90;;;;;;5073943;28;20206;-92
2021/01/12 05:44:39;;;;;;;5.68;4.30;;;6.20;99.90;;;;;;5063963;28;20180;-91
2021/01/12 05:47:06;;;;;;;4.60;3.97;;;6.20;99.90;;;;;;5062118;28;20252;-90
2021/01/12 05:49:33;;;;;;;4.97;4.25;;;6.20;99.90;;;;;;5047361;28;20189;-90
2021/01/12 05:52:00;;;;;;;4.60;3.40;;;6.20;99.90;;;;;;5051740;28;20195;-91
2021/01/12 05:54:36;;;;;;;7.97;4.65;;;6.20;99.90;;;;;;5053891;28;20593;-92
2021/01/12 05:57:05;;;;;;;5.35;4.43;;;6.30;99.90;;;;;;5038269;28;20234;-90
2021/01/12 05:59:32;;;;;;;5.55;4.00;;;6.30;99.90;;;;;;5038047;28;20235;-87
2021/01/12 06:02:00;;;;;;;4.50;3.80;;;6.20;99.90;;;;;;5036510;28;20243;-89
2021/01/12 06:04:27;;;;;;;5.95;4.60;;;6.20;99.90;;;;;;5037748;28;20746;-89
2021/01/12 06:06:55;;;;;;;5.07;4.28;;;6.20;99.90;;;;;;5042172;28;20536;-87
2021/01/12 06:09:22;;;;;;;4.18;3.63;;;6.30;99.90;;;;;;5038570;28;20177;-89
2021/01/12 06:11:50;;;;;;;5.32;4.47;;;6.30;99.90;;;;;;5036910;28;20192;-88
2021/01/12 06:14:17;;;;;;;4.25;3.55;;;6.30;99.90;;;;;;5037859;28;20193;-89
2021/01/12 06:16:45;;;;;;;4.82;4.32;;;6.30;99.90;;;;;;5036593;28;20555;-89
2021/01/12 06:19:15;;;;;;;4.32;3.58;;;6.30;99.90;;;;;;5037187;28;20270;-88
2021/01/12 06:22:04;;;;;;;7.28;4.60;;;6.30;99.90;;;;;;5036440;28;20204;-88
2021/01/12 06:24:41;;;;;;;4.40;3.65;;;6.30;99.90;;;;;;5036656;28;20188;-89
2021/01/12 06:27:11;;;;;;;4.25;3.28;;;6.30;99.90;;;;;;5037018;28;20219;-90
2021/01/12 06:29:40;;;;;;;4.03;3.17;;;6.40;99.90;;;;;;5055789;28;20197;-92
2021/01/12 06:32:06;;;;;;;4.70;3.97;;;6.40;99.90;;;;;;5038260;28;20199;-90
2021/01/12 06:34:33;;;;;;;3.58;2.28;;;6.40;99.90;;;;;;5053154;28;20192;-90
2021/01/12 06:37:04;;;;;;;3.80;2.95;;;6.40;99.90;;;;;;5057995;28;20188;-91
2021/01/12 06:39:42;;;;;;;4.10;3.25;;;6.50;99.90;;;;;;5056188;28;20200;-91
2021/01/12 06:42:09;;;;;;;4.30;3.15;;;6.50;99.90;;;;;;5042178;28;20193;-88
2021/01/12 06:44:38;;;;;;;4.10;3.25;;;6.50;99.90;;;;;;5037201;28;20242;-89
2021/01/12 06:47:06;;;;;;;3.72;2.72;;;6.50;99.90;;;;;;5037151;28;20652;-89
2021/01/12 06:49:36;;;;;;;3.40;2.45;;;6.50;99.90;;;;;;5052757;28;20191;-89
2021/01/12 06:52:04;;;;;;;4.07;2.88;;;6.50;99.90;;;;;;5063366;28;20238;-93
2021/01/12 06:54:35;;;;;;;3.53;3.15;;;6.50;99.90;;;;;;5056668;28;20268;-94
2021/01/12 06:57:03;;;;;;;4.70;2.92;;;6.50;99.90;;;;;;5058377;28;20722;-90
2021/01/12 06:59:34;;;;;;;3.38;2.67;;;6.50;99.90;;;;;;5052731;28;20279;-91
2021/01/12 07:02:05;;;;;;;2.90;2.40;;;6.50;99.90;;;;;;5036331;28;20199;-89
2021/01/12 07:04:31;;;;;;;4.30;2.67;;;6.50;99.90;;;;;;5040787;28;20528;-90
2021/01/12 07:07:00;;;;;;;4.32;3.15;;;6.50;99.90;;;;;;5054675;28;20196;-88
2021/01/12 07:09:28;;;;;;;4.85;3.22;;;6.50;99.90;;;;;;5055699;28;20246;-89
2021/01/12 07:12:08;;;;;;;4.25;3.28;;;6.50;99.90;;;;;;5037994;28;20386;-89
2021/01/12 07:14:45;;;;;;;4.00;3.22;;;6.50;99.90;;;;;;5036108;28;20374;-89
2021/01/12 07:17:11;;;;;;;4.22;3.50;;;6.50;99.90;;;;;;5036371;28;20188;-91
2021/01/12 07:19:38;;;;;;;3.55;2.95;;;6.50;99.90;;;;;;5036081;28;20226;-89
2021/01/12 07:22:11;;;;;;;9.48;4.53;;;6.60;99.90;;;;;;5036390;28;20535;-89
2021/01/12 07:24:39;;;;;;;3.63;3.10;;;6.60;99.90;;;;;;5039673;28;20193;-88
2021/01/12 07:27:06;;;;;;;4.40;3.63;;;6.60;99.90;;;;;;5035269;28;20670;-92
2021/01/12 07:29:33;;;;;;;4.45;3.80;;;6.60;99.90;;;;;;5034763;28;20227;-89
2021/01/12 07:32:03;;;;;;;4.40;3.80;;;6.60;99.90;;;;;;5042972;28;20212;-90
2021/01/12 07:34:35;;;;;;;4.10;2.83;;;6.60;99.90;;;;;;5032901;28;20207;-89
2021/01/12 07:37:04;;;;;;;4.65;3.45;;;6.60;99.90;;;;;;5039573;28;20184;-89
2021/01/12 07:39:33;;;;;;;6.22;3.13;;;6.60;99.90;;;;;;5054757;28;20238;-89
2021/01/12 07:41:59;;;;;;;4.57;4.10;;;6.60;99.90;;;;;;5041269;28;20216;-92
2021/01/12 07:44:26;;;;;;;4.00;3.60;;;6.70;99.90;;;;;;5037520;28;20193;-90
2021/01/12 07:46:57;;;;;;;5.65;4.15;;;6.70;99.90;;;;;;5050452;28;20199;-88
2021/01/12 07:49:25;;;;;;;6.40;3.88;;;6.70;99.90;;;;;;5035383;28;20192;-88
2021/01/12 07:51:52;;;;;;;5.43;4.60;;;6.70;99.90;;;;;;5042796;28;20184;-89
2021/01/12 07:54:24;;;;;;;5.88;4.28;;;6.70;99.90;;;;;;5038052;28;20188;-91
2021/01/12 07:56:54;;;;;;;6.75;4.80;;;6.70;99.90;;;;;;5047762;28;20192;-89
2021/01/12 07:59:21;;;;;;;5.30;4.38;;;6.70;99.90;;;;;;5039178;28;20251;-92
2021/01/12 08:01:47;;;;;;;5.50;4.43;;;6.70;99.90;;;;;;5047303;28;20218;-88
2021/01/12 08:04:14;;;;;;;5.72;4.60;;;6.70;99.90;;;;;;5054698;28;20212;-90
2021/01/12 08:06:42;;;;;;;5.32;4.00;;;6.70;99.90;;;;;;5052221;28;20188;-89
2021/01/12 08:09:09;;;;;;;5.78;5.15;;;6.70;99.90;;;;;;5045483;28;20195;-89
2021/01/12 08:11:36;;;;;;;5.95;4.47;;;6.70;99.90;;;;;;5054680;28;20385;-89
2021/01/12 08:14:07;;;;;;;5.13;3.97;;;6.70;99.90;;;;;;5047248;28;20193;-90
2021/01/12 08:16:35;;;;;;;7.45;5.30;;;6.80;99.90;;;;;;5049260;28;20232;-88
2021/01/12 08:19:01;;;;;;;8.95;5.10;;;6.80;99.90;;;;;;5051448;28;20215;-91
2021/01/12 08:21:27;;;;;;;7.18;5.85;;;6.80;99.90;;;;;;5035112;28;20193;-90
2021/01/12 08:24:00;;;;;;;5.95;4.88;;;6.80;99.90;;;;;;5034857;28;20211;-89
2021/01/12 08:26:27;;;;;;;8.65;6.63;;;6.80;99.90;;;;;;5034753;28;20674;-90
2021/01/12 08:28:54;;;;;;;6.68;5.32;;;6.80;99.90;;;;;;5037405;28;20193;-90
2021/01/12 08:31:21;;;;;;;7.53;6.30;;;6.90;99.90;;;;;;5039064;28;20208;-90
2021/01/12 08:33:51;;;;;;;7.75;5.88;;;6.80;99.90;;;;;;5045263;28;20828;-92
2021/01/12 08:36:19;;;;;;;7.18;5.60;;;6.90;99.90;;;;;;5056334;28;20231;-88
2021/01/12 08:38:48;;;;;;;9.20;7.45;;;6.90;99.90;;;;;;5053838;28;20208;-87
2021/01/12 08:41:15;;;;;;;8.73;6.55;;;6.90;99.90;;;;;;5055412;28;20185;-86
2021/01/12 08:43:44;;;;;;;8.77;6.65;;;7.00;99.90;;;;;;5040836;28;20221;-87
2021/01/12 08:46:10;;;;;;;10.73;6.80;;;7.00;99.90;;;;;;5040219;28;20288;-85
2021/01/12 08:48:47;;;;;;;8.18;7.38;;;7.00;99.90;;;;;;5040079;28;20659;-85
2021/01/12 08:51:15;;;;;;;10.63;8.48;;;7.00;99.90;;;;;;5036249;28;20441;-85
2021/01/12 08:53:42;;;;;;;9.23;8.30;;;7.10;99.90;;;;;;5054705;28;20459;-85
2021/01/12 08:56:09;;;;;;;8.02;7.20;;;7.10;99.90;;;;;;5057109;28;20450;-85
2021/01/12 08:58:36;;;;;;;8.02;7.00;;;7.10;99.90;;;;;;5053535;28;20448;-86
2021/01/12 09:01:03;;;;;;;10.27;6.63;;;7.10;99.90;;;;;;5057622;28;20246;-86
2021/01/12 09:03:30;;;;;;;8.95;6.43;;;7.10;99.90;;;;;;5054802;28;20708;-86
2021/01/12 09:05:58;;;;;;;8.68;6.75;;;7.10;99.90;;;;;;5056163;28;20192;-85
2021/01/12 09:08:26;;;;;;;10.18;8.98;;;7.10;99.90;;;;;;5040553;28;20660;-86
2021/01/12 09:10:53;;;;;;;9.35;6.82;;;7.10;99.90;;;;;;5040833;28;20708;-87
2021/01/12 09:13:26;;;;;;;11.48;9.23;;;7.10;99.90;;;;;;5048656;28;20209;-90
2021/01/12 09:15:52;;;;;;;13.40;10.10;;;7.10;99.90;;;;;;5053803;28;20804;-90
2021/01/12 09:18:20;;;;;;;9.40;7.43;;;7.10;99.90;;;;;;5038647;28;20219;-90
2021/01/12 09:20:53;;;;;;;5.50;4.35;;;7.10;99.90;;;;;;5049294;28;20187;-89
2021/01/12 09:23:21;;;;;;;4.88;4.25;;;7.10;99.90;;;;;;5036635;28;20212;-89
2021/01/12 09:25:51;;;;;;;6.43;4.78;;;6.90;99.90;;;;;;5036032;28;20279;-88
2021/01/12 09:28:19;;;;;;;8.32;6.57;;;6.90;99.90;;;;;;5036499;28;20196;-86
2021/01/12 09:30:47;;;;;;;11.30;7.47;;;6.90;99.90;;;;;;5036472;28;20197;-89
2021/01/12 09:33:14;;;;;;;8.35;6.38;;;7.00;99.90;;;;;;5035842;28;20185;-89
2021/01/12 09:35:41;;;;;;;8.57;6.65;;;7.00;99.90;;;;;;5036971;28;20185;-88
2021/01/12 09:38:07;;;;;;;9.82;6.88;;;7.00;99.90;;;;;;5036745;28;20259;-87
2021/01/12 09:40:34;;;;;;;13.00;7.32;;;7.10;99.90;;;;;;5035977;28;20185;-87
2021/01/12 09:43:01;;;;;;;8.93;7.28;;;7.00;99.90;;;;;;5036277;28;20204;-86
2021/01/12 09:45:27;;;;;;;10.57;7.28;;;7.00;99.90;;;;;;5036608;28;20254;-89
2021/01/12 09:47:54;;;;;;;12.43;6.95;;;7.00;99.90;;;;;;5037238;28;20219;-92
2021/01/12 09:50:21;;;;;;;8.02;5.88;;;7.00;99.90;;;;;;5037852;28;20236;-90
2021/01/12 09:52:47;;;;;;;9.50;7.13;;;7.00;99.90;;;;;;5038520;28;20230;-92
2021/01/12 09:55:14;;;;;;;13.45;6.95;;;7.00;99.90;;;;;;5043101;28;20188;-91
2021/01/12 09:57:42;;;;;;;11.02;6.78;;;7.10;99.90;;;;;;5050310;28;20196;-92
2021/01/12 10:00:10;;;;;;;10.35;6.93;;;7.00;99.90;;;;;;5056310;28;20207;-90
2021/01/12 10:02:36;;;;;;;8.73;6.15;;;7.00;99.90;;;;;;5041134;28;20209;-90
2021/01/12 10:05:03;;;;;;;12.93;8.15;;;7.00;99.90;;;;;;5036859;28;20258;-90
2021/01/12 10:07:29;;;;;;;9.25;7.05;;;7.00;99.90;;;;;;5050353;28;20218;-89
2021/01/12 10:09:56;;;;;;;8.25;6.53;;;7.10;99.90;;;;;;5054543;28;20631;-89
2021/01/12 10:12:22;;;;;;;8.50;7.10;;;7.00;99.90;;;;;;5056266;28;20199;-89
2021/01/12 10:14:49;;;;;;;8.93;6.05;;;7.00;99.90;;;;;;5054321;28;20189;-90
2021/01/12 10:17:16;;;;;;;7.55;6.72;;;6.90;99.90;;;;;;5035979;28;20188;-89
2021/01/12 10:19:42;;;;;;;45.78;8.77;;;6.90;99.90;;;;;;5043967;28;20212;-89
2021/01/12 10:22:08;;;;;;;11.40;6.53;;;6.90;99.90;;;;;;5050991;28;20579;-90
2021/01/12 10:24:34;;;;;;;9.45;6.43;;;6.90;99.90;;;;;;5040011;28;20236;-90
2021/01/12 10:27:01;;;;;;;9.70;7.18;;;6.90;99.90;;;;;;5037723;28;20227;-89
2021/01/12 10:29:29;;;;;;;8.68;6.38;;;6.90;99.90;;;;;;5052902;28;20201;-91
2021/01/12 10:31:56;;;;;;;8.15;6.45;;;6.90;99.90;;;;;;5057159;28;20195;-92
2021/01/12 10:34:24;;;;;;;7.10;5.63;;;6.90;99.90;;;;;;5057758;28;20197;-92
2021/01/12 10:36:51;;;;;;;7.03;5.78;;;6.90;99.90;;;;;;5044517;28;20208;-92
2021/01/12 10:39:18;;;;;;;9.10;5.90;;;6.90;99.90;;;;;;5038937;28;20283;-91
2021/01/12 10:41:44;;;;;;;9.60;6.32;;;6.80;99.90;;;;;;5053929;28;20212;-88
2021/01/12 10:44:10;;;;;;;8.07;6.07;;;6.70;99.90;;;;;;5059682;28;20222;-91
2021/01/12 10:46:37;;;;;;;7.40;5.95;;;6.70;99.90;;;;;;5052958;28;20201;-90
2021/01/12 10:49:05;;;;;;;8.55;5.55;;;6.70;99.90;;;;;;5053443;28;20215;-92
2021/01/12 10:51:31;;;;;;;8.25;5.40;;;6.60;99.90;;;;;;5057187;28;20249;-91
2021/01/12 10:53:57;;;;;;;7.43;4.57;;;6.50;99.90;;;;;;5056016;28;20188;-91
2021/01/12 10:56:24;;;;;;;6.07;4.63;;;6.60;99.90;;;;;;5056486;28;20224;-92
2021/01/12 10:58:52;;;;;;;5.25;3.95;;;6.50;99.90;;;;;;5055892;28;20184;-92
2021/01/12 11:01:18;;;;;;;8.00;5.22;;;6.50;99.90;;;;;;5055147;28;20184;-91
2021/01/12 11:03:45;;;;;;;8.25;4.30;;;6.60;99.90;;;;;;5036604;28;20275;-92
2021/01/12 11:06:12;;;;;;;5.57;4.75;;;6.60;99.90;;;;;;5037318;28;20679;-92
2021/01/12 11:08:39;;;;;;;6.70;4.68;;;6.60;99.90;;;;;;5036158;28;20196;-89
2021/01/12 11:11:05;;;;;;;5.60;3.85;;;6.60;99.90;;;;;;5054011;28;20192;-89
2021/01/12 11:13:32;;;;;;;8.57;4.72;;;6.50;99.90;;;;;;5045930;28;20184;-90
2021/01/12 11:15:58;;;;;;;5.63;4.18;;;6.50;99.90;;;;;;5055547;28;20190;-87
2021/01/12 11:18:25;;;;;;;6.50;4.25;;;6.50;99.90;;;;;;5039944;28;20228;-89
2021/01/12 11:20:52;;;;;;;5.35;3.83;;;6.50;99.90;;;;;;5036477;28;20185;-90
2021/01/12 11:23:19;;;;;;;5.47;3.50;;;6.50;99.90;;;;;;5037862;28;20640;-90
2021/01/12 11:25:45;;;;;;;3.70;2.90;;;6.50;99.90;;;;;;5038162;28;20201;-90
2021/01/12 11:28:12;;;;;;;5.40;3.30;;;6.40;99.90;;;;;;5057271;28;20188;-89
2021/01/12 11:30:38;;;;;;;6.25;4.10;;;6.40;99.90;;;;;;5054801;28;20187;-90
2021/01/12 11:33:07;;;;;;;4.18;2.75;;;6.30;99.90;;;;;;5053121;28;20193;-90
2021/01/12 11:35:34;;;;;;;3.60;2.10;;;6.20;99.90;;;;;;5037708;28;20195;-89
2021/01/12 11:38:00;;;;;;;3.25;1.95;;;6.20;99.90;;;;;;5037468;28;20233;-89
2021/01/12 11:40:27;;;;;;;2.25;1.48;;;6.10;99.90;;;;;;5037583;28;20191;-89
2021/01/12 11:42:54;;;;;;;2.10;1.20;;;6.10;99.90;;;;;;5048877;28;20212;-89
2021/01/12 11:45:20;;;;;;;3.35;1.70;;;6.00;99.90;;;;;;5051821;28;20189;-90
2021/01/12 11:47:47;;;;;;;2.45;1.35;;;6.00;99.90;;;;;;5037230;28;20192;-89
2021/01/12 11:50:14;;;;;;;3.00;1.23;;;6.10;99.90;;;;;;5042481;28;20180;-88
2021/01/12 11:52:41;;;;;;;2.45;1.35;;;6.10;99.90;;;;;;5047579;28;20192;-89
2021/01/12 11:55:08;;;;;;;4.47;2.22;;;6.10;99.90;;;;;;5040359;28;20188;-88
2021/01/12 11:57:38;;;;;;;7.90;3.72;;;6.10;99.90;;;;;;5049297;28;20626;-89
2021/01/12 12:00:06;;;;;;;5.93;3.00;;;6.30;99.90;;;;;;5037893;28;20180;-90
2021/01/12 12:02:32;;;;;;;4.00;2.88;;;6.30;99.90;;;;;;5053889;28;20196;-89
2021/01/12 12:05:00;;;;;;;5.60;3.65;;;6.30;99.90;;;;;;5060187;28;20193;-90
2021/01/12 12:07:27;;;;;;;3.60;3.00;;;6.40;99.90;;;;;;5062023;28;20207;-89
2021/01/12 12:09:53;;;;;;;3.75;2.47;;;6.40;99.90;;;;;;5061454;28;20198;-89
2021/01/12 12:12:20;;;;;;;5.50;1.83;;;6.40;99.90;;;;;;5057729;28;20180;-89
2021/01/12 12:14:47;;;;;;;4.40;2.00;;;6.40;99.90;;;;;;5042428;28;20195;-89
2021/01/12 12:17:14;;;;;;;3.40;1.70;;;6.40;99.90;;;;;;5043737;28;20609;-89
2021/01/12 12:19:40;;;;;;;3.85;1.70;;;6.40;99.90;;;;;;5042574;28;20220;-89
2021/01/12 12:22:07;;;;;;;3.42;1.25;;;6.30;99.90;;;;;;5041858;28;20235;-89
2021/01/12 12:24:33;;;;;;;2.45;1.52;;;6.20;99.90;;;;;;5059406;28;20686;-89
2021/01/12 12:27:00;;;;;;;3.28;1.60;;;6.20;99.90;;;;;;5056552;28;20582;-88
2021/01/12 12:29:27;;;;;;;2.30;1.50;;;6.20;99.90;;;;;;5052275;28;20198;-88
2021/01/12 12:31:56;;;;;;;5.10;1.75;;;6.10;99.90;;;;;;5062028;28;20196;-88
2021/01/12 12:34:23;;;;;;;3.28;1.80;;;6.10;99.90;;;;;;5059078;28;20631;-88
2021/01/12 12:36:50;;;;;;;2.72;1.20;;;6.10;99.90;;;;;;5058981;28;20185;-89
2021/01/12 12:39:16;;;;;;;2.88;1.38;;;5.80;99.90;;;;;;5059824;28;20195;-90
2021/01/12 12:41:43;;;;;;;2.83;1.52;;;5.60;99.90;;;;;;5059921;28;20184;-89
2021/01/12 12:44:09;;;;;;;2.65;1.52;;;5.40;99.90;;;;;;5063574;28;20212;-88
2021/01/12 12:46:35;;;;;;;4.10;2.03;;;5.30;99.90;;;;;;5061830;28;20202;-89
2021/01/12 12:49:03;;;;;;;2.15;0.90;;;5.20;99.90;;;;;;5043911;28;20181;-89
2021/01/12 12:51:29;;;;;;;3.83;1.10;;;4.90;99.90;;;;;;5046390;28;20199;-89
2021/01/12 12:53:56;;;;;;;1.95;1.08;;;4.90;99.90;;;;;;5047258;28;20631;-90
2021/01/12 12:56:22;;;;;;;4.38;1.30;;;4.80;99.90;;;;;;5043170;28;20243;-90
2021/01/12 12:58:49;;;;;;;2.55;1.15;;;4.80;99.90;;;;;;5043481;28;20222;-92
2021/01/12 13:01:16;;;;;;;2.65;1.23;;;4.80;99.90;;;;;;5053975;28;20204;-92
2021/01/12 13:03:42;;;;;;;4.93;1.35;;;5.00;99.90;;;;;;5058153;28;20219;-90
2021/01/12 13:06:11;;;;;;;4.65;1.45;;;5.10;99.90;;;;;;5051327;28;20188;-90
2021/01/12 13:08:38;;;;;;;3.45;1.27;;;5.10;99.90;;;;;;5047619;28;20250;-87
2021/01/12 13:11:06;;;;;;;6.70;2.03;;;5.10;99.90;;;;;;5050292;28;20211;-89
2021/01/12 13:13:33;;;;;;;4.00;1.52;;;5.20;99.90;;;;;;5055379;28;20188;-89